Flugplatz Gunzenhausen-Reutberg

Für EDMH sind keine METAR/TAF Berichte vorhanden.
Es werden die Flugwettermeldungen vom Flugplatz Ansbach Army Heliport in 24 km Entfernung angezeigt.

Bericht für ETEB

vom 17.09. um 12:56 UTC

Wind 12 kt aus 260° in Böen 16 kt

Sichtweite 10 km oder mehr

aufgelockert bewölkt in 3300 ft

Temperatur 17.6°C

Taupunkt 8.4°C

Luftfeuchtigkeit 55%

Luftdruck 1019 hPa

ETEB 171256Z AUTO 26012G16KT 9999 SCT033 18/08 A3008 RMK AO2 SLP188 T01760084 $

Prognose für ETEB

vom 17.09. um 00:00 UTC

Zwischen 00:00 UTC und 00:00 UTC

Wind 12 kt aus 260°

Sichtweite 10 km oder mehr

gering bewölkt in 4000 ft


Zwischen 00:00 UTC und 00:00 UTC zeitweise

Wind 12 kt aus 300° in Böen 18 kt


Zwischen 00:00 und 00:00 UTC übergehend zu

Wind 8 kt aus 320°

Sichtweite 10 km oder mehr

aufgebrochene Bewölkung in 4000 ft


Am 18.09. zwischen 00:00 und 00:00 UTC übergehend zu

variable Windrichtung mit 6 kt

Sichtweite 10 km oder mehr

keine Wolken

TAF AMD ETEB 1713/1819 26012KT 9999 FEW040 QNH3006INS TEMPO 1714/1718 30012G18KT BECMG 1718/1719 32008KT 9999 BKN040 QNH3011INS BECMG 1800/1801 VRB06KT 9999 SKC QNH3022INS TX18/1714Z TN06/1804Z
Impressum